sensor_id;sensor_type;location;lat;lon;timestamp;P1;durP1;ratioP1;P2;durP2;ratioP2
7957;SDS011;4024;52.172;5.378;2022-09-17T00:00:38;10.70;;;3.03;;
7957;SDS011;4024;52.172;5.378;2022-09-17T00:03:05;14.27;;;3.37;;
7957;SDS011;4024;52.172;5.378;2022-09-17T00:05:33;12.73;;;3.47;;
7957;SDS011;4024;52.172;5.378;2022-09-17T00:08:04;8.70;;;3.57;;
7957;SDS011;4024;52.172;5.378;2022-09-17T00:10:31;8.17;;;3.23;;
7957;SDS011;4024;52.172;5.378;2022-09-17T00:12:57;9.20;;;3.07;;
7957;SDS011;4024;52.172;5.378;2022-09-17T00:15:23;15.67;;;3.23;;
7957;SDS011;4024;52.172;5.378;2022-09-17T00:17:52;10.17;;;3.17;;
7957;SDS011;4024;52.172;5.378;2022-09-17T00:20:21;11.90;;;3.43;;
7957;SDS011;4024;52.172;5.378;2022-09-17T00:22:47;11.50;;;3.07;;
7957;SDS011;4024;52.172;5.378;2022-09-17T00:25:13;13.17;;;2.77;;
7957;SDS011;4024;52.172;5.378;2022-09-17T00:27:38;7.33;;;2.70;;
7957;SDS011;4024;52.172;5.378;2022-09-17T00:30:04;8.83;;;2.67;;
7957;SDS011;4024;52.172;5.378;2022-09-17T00:32:30;5.53;;;2.50;;
7957;SDS011;4024;52.172;5.378;2022-09-17T00:34:56;9.67;;;3.50;;
7957;SDS011;4024;52.172;5.378;2022-09-17T00:37:21;12.00;;;3.23;;
7957;SDS011;4024;52.172;5.378;2022-09-17T00:39:47;6.80;;;3.10;;
7957;SDS011;4024;52.172;5.378;2022-09-17T00:42:14;10.97;;;3.33;;
7957;SDS011;4024;52.172;5.378;2022-09-17T00:44:54;9.03;;;2.77;;
7957;SDS011;4024;52.172;5.378;2022-09-17T00:47:31;13.70;;;2.93;;
7957;SDS011;4024;52.172;5.378;2022-09-17T00:52:31;9.30;;;3.53;;
7957;SDS011;4024;52.172;5.378;2022-09-17T00:55:12;7.40;;;2.80;;
7957;SDS011;4024;52.172;5.378;2022-09-17T00:57:41;12.83;;;3.30;;
7957;SDS011;4024;52.172;5.378;2022-09-17T01:00:10;8.60;;;2.70;;
7957;SDS011;4024;52.172;5.378;2022-09-17T01:02:37;9.37;;;2.80;;
7957;SDS011;4024;52.172;5.378;2022-09-17T01:05:04;11.50;;;3.37;;
7957;SDS011;4024;52.172;5.378;2022-09-17T01:10:18;8.27;;;2.13;;
7957;SDS011;4024;52.172;5.378;2022-09-17T01:26:59;7.30;;;2.50;;
7957;SDS011;4024;52.172;5.378;2022-09-17T01:32:41;7.87;;;2.80;;
7957;SDS011;4024;52.172;5.378;2022-09-17T01:35:18;7.27;;;2.53;;
7957;SDS011;4024;52.172;5.378;2022-09-17T01:40:54;5.17;;;2.37;;
7957;SDS011;4024;52.172;5.378;2022-09-17T01:43:41;6.40;;;2.27;;
7957;SDS011;4024;52.172;5.378;2022-09-17T01:46:19;6.97;;;2.00;;
7957;SDS011;4024;52.172;5.378;2022-09-17T01:48:51;6.77;;;2.33;;
7957;SDS011;4024;52.172;5.378;2022-09-17T01:51:23;6.40;;;1.90;;
7957;SDS011;4024;52.172;5.378;2022-09-17T01:56:36;5.47;;;2.00;;
7957;SDS011;4024;52.172;5.378;2022-09-17T01:59:19;3.63;;;1.60;;
7957;SDS011;4024;52.172;5.378;2022-09-17T02:02:06;4.83;;;1.90;;
7957;SDS011;4024;52.172;5.378;2022-09-17T02:04:49;5.70;;;2.00;;
7957;SDS011;4024;52.172;5.378;2022-09-17T02:07:22;4.40;;;1.80;;
7957;SDS011;4024;52.172;5.378;2022-09-17T02:10:04;6.70;;;2.20;;
7957;SDS011;4024;52.172;5.378;2022-09-17T02:12:37;7.70;;;2.20;;
7957;SDS011;4024;52.172;5.378;2022-09-17T02:15:07;7.93;;;2.23;;
7957;SDS011;4024;52.172;5.378;2022-09-17T02:17:43;8.43;;;2.50;;
7957;SDS011;4024;52.172;5.378;2022-09-17T02:20:13;6.57;;;2.20;;
7957;SDS011;4024;52.172;5.378;2022-09-17T02:22:41;7.30;;;2.37;;
7957;SDS011;4024;52.172;5.378;2022-09-17T02:30:23;6.10;;;2.00;;
7957;SDS011;4024;52.172;5.378;2022-09-17T02:32:49;6.30;;;1.83;;
7957;SDS011;4024;52.172;5.378;2022-09-17T02:35:15;4.37;;;1.80;;
7957;SDS011;4024;52.172;5.378;2022-09-17T02:37:41;7.33;;;2.43;;
7957;SDS011;4024;52.172;5.378;2022-09-17T02:40:09;4.93;;;2.47;;
7957;SDS011;4024;52.172;5.378;2022-09-17T02:48:38;6.37;;;1.70;;
7957;SDS011;4024;52.172;5.378;2022-09-17T02:52:01;4.40;;;1.87;;
7957;SDS011;4024;52.172;5.378;2022-09-17T02:57:12;6.47;;;2.30;;
7957;SDS011;4024;52.172;5.378;2022-09-17T03:00:07;8.83;;;2.03;;
7957;SDS011;4024;52.172;5.378;2022-09-17T03:02:43;8.60;;;2.10;;
7957;SDS011;4024;52.172;5.378;2022-09-17T03:05:20;8.27;;;2.20;;
7957;SDS011;4024;52.172;5.378;2022-09-17T03:07:47;6.43;;;2.17;;
7957;SDS011;4024;52.172;5.378;2022-09-17T03:10:13;8.37;;;2.47;;
7957;SDS011;4024;52.172;5.378;2022-09-17T03:12:40;9.40;;;2.30;;
7957;SDS011;4024;52.172;5.378;2022-09-17T03:15:06;9.60;;;2.40;;
7957;SDS011;4024;52.172;5.378;2022-09-17T03:17:32;8.13;;;2.30;;
7957;SDS011;4024;52.172;5.378;2022-09-17T03:19:58;9.37;;;2.40;;
7957;SDS011;4024;52.172;5.378;2022-09-17T03:22:23;9.70;;;2.53;;
7957;SDS011;4024;52.172;5.378;2022-09-17T03:24:49;8.10;;;2.20;;
7957;SDS011;4024;52.172;5.378;2022-09-17T03:27:15;10.53;;;2.43;;
7957;SDS011;4024;52.172;5.378;2022-09-17T03:29:41;7.63;;;2.50;;
7957;SDS011;4024;52.172;5.378;2022-09-17T03:32:06;5.90;;;2.40;;
7957;SDS011;4024;52.172;5.378;2022-09-17T03:34:32;5.53;;;2.17;;
7957;SDS011;4024;52.172;5.378;2022-09-17T03:36:58;11.87;;;2.90;;
7957;SDS011;4024;52.172;5.378;2022-09-17T03:39:23;8.30;;;2.53;;
7957;SDS011;4024;52.172;5.378;2022-09-17T03:41:49;9.10;;;2.40;;
7957;SDS011;4024;52.172;5.378;2022-09-17T03:44:15;9.87;;;2.70;;
7957;SDS011;4024;52.172;5.378;2022-09-17T03:46:42;5.27;;;2.20;;
7957;SDS011;4024;52.172;5.378;2022-09-17T03:49:08;10.23;;;2.83;;
7957;SDS011;4024;52.172;5.378;2022-09-17T03:51:33;8.77;;;2.90;;
7957;SDS011;4024;52.172;5.378;2022-09-17T03:53:59;16.20;;;3.03;;
7957;SDS011;4024;52.172;5.378;2022-09-17T03:56:26;5.60;;;2.20;;
7957;SDS011;4024;52.172;5.378;2022-09-17T03:58:55;5.13;;;2.20;;
7957;SDS011;4024;52.172;5.378;2022-09-17T04:01:24;9.93;;;2.87;;
7957;SDS011;4024;52.172;5.378;2022-09-17T04:03:50;10.13;;;3.10;;
7957;SDS011;4024;52.172;5.378;2022-09-17T04:06:17;8.70;;;2.60;;
7957;SDS011;4024;52.172;5.378;2022-09-17T04:08:42;7.10;;;2.57;;
7957;SDS011;4024;52.172;5.378;2022-09-17T04:11:08;9.30;;;2.50;;
7957;SDS011;4024;52.172;5.378;2022-09-17T04:13:34;8.50;;;2.67;;
7957;SDS011;4024;52.172;5.378;2022-09-17T04:16:00;12.87;;;2.53;;
7957;SDS011;4024;52.172;5.378;2022-09-17T04:18:26;5.57;;;2.60;;
7957;SDS011;4024;52.172;5.378;2022-09-17T04:20:52;7.60;;;2.43;;
7957;SDS011;4024;52.172;5.378;2022-09-17T04:23:17;6.77;;;2.20;;
7957;SDS011;4024;52.172;5.378;2022-09-17T04:25:43;8.33;;;2.83;;
7957;SDS011;4024;52.172;5.378;2022-09-17T04:28:09;8.63;;;2.07;;
7957;SDS011;4024;52.172;5.378;2022-09-17T04:30:35;8.33;;;2.80;;
7957;SDS011;4024;52.172;5.378;2022-09-17T04:33:02;7.63;;;2.33;;
7957;SDS011;4024;52.172;5.378;2022-09-17T04:35:28;4.17;;;1.90;;
7957;SDS011;4024;52.172;5.378;2022-09-17T04:37:55;5.80;;;1.93;;
7957;SDS011;4024;52.172;5.378;2022-09-17T04:40:22;4.40;;;1.90;;
7957;SDS011;4024;52.172;5.378;2022-09-17T04:42:52;3.23;;;1.97;;
7957;SDS011;4024;52.172;5.378;2022-09-17T04:45:27;6.50;;;2.03;;
7957;SDS011;4024;52.172;5.378;2022-09-17T04:47:54;9.07;;;2.07;;
7957;SDS011;4024;52.172;5.378;2022-09-17T04:50:20;3.33;;;1.87;;
7957;SDS011;4024;52.172;5.378;2022-09-17T04:52:46;5.53;;;2.10;;
7957;SDS011;4024;52.172;5.378;2022-09-17T04:55:12;4.83;;;1.60;;
7957;SDS011;4024;52.172;5.378;2022-09-17T04:57:44;6.07;;;2.13;;
7957;SDS011;4024;52.172;5.378;2022-09-17T05:00:14;7.60;;;1.83;;
7957;SDS011;4024;52.172;5.378;2022-09-17T05:02:42;6.50;;;1.80;;
7957;SDS011;4024;52.172;5.378;2022-09-17T05:05:09;4.17;;;1.63;;
7957;SDS011;4024;52.172;5.378;2022-09-17T05:07:37;8.07;;;2.40;;
7957;SDS011;4024;52.172;5.378;2022-09-17T05:10:03;4.83;;;1.83;;
7957;SDS011;4024;52.172;5.378;2022-09-17T05:12:29;5.67;;;1.93;;
7957;SDS011;4024;52.172;5.378;2022-09-17T05:14:55;6.57;;;2.27;;
7957;SDS011;4024;52.172;5.378;2022-09-17T05:17:20;6.10;;;1.93;;
7957;SDS011;4024;52.172;5.378;2022-09-17T05:19:46;6.83;;;1.97;;
7957;SDS011;4024;52.172;5.378;2022-09-17T05:22:11;5.13;;;1.80;;
7957;SDS011;4024;52.172;5.378;2022-09-17T05:24:37;4.60;;;1.60;;
7957;SDS011;4024;52.172;5.378;2022-09-17T05:27:04;6.17;;;1.80;;
7957;SDS011;4024;52.172;5.378;2022-09-17T05:29:30;6.67;;;1.97;;
7957;SDS011;4024;52.172;5.378;2022-09-17T05:31:56;7.37;;;1.77;;
7957;SDS011;4024;52.172;5.378;2022-09-17T05:34:22;7.60;;;2.03;;
7957;SDS011;4024;52.172;5.378;2022-09-17T05:36:47;6.20;;;1.70;;
7957;SDS011;4024;52.172;5.378;2022-09-17T05:39:13;4.80;;;1.83;;
7957;SDS011;4024;52.172;5.378;2022-09-17T05:41:39;11.00;;;2.50;;
7957;SDS011;4024;52.172;5.378;2022-09-17T05:44:04;5.37;;;1.97;;
7957;SDS011;4024;52.172;5.378;2022-09-17T05:46:30;4.43;;;2.40;;
7957;SDS011;4024;52.172;5.378;2022-09-17T05:48:56;4.10;;;1.90;;
7957;SDS011;4024;52.172;5.378;2022-09-17T05:51:22;7.73;;;2.00;;
7957;SDS011;4024;52.172;5.378;2022-09-17T05:53:48;5.63;;;1.77;;
7957;SDS011;4024;52.172;5.378;2022-09-17T05:56:13;5.80;;;1.73;;
7957;SDS011;4024;52.172;5.378;2022-09-17T05:58:39;5.33;;;1.90;;
7957;SDS011;4024;52.172;5.378;2022-09-17T06:01:05;5.10;;;2.20;;
7957;SDS011;4024;52.172;5.378;2022-09-17T06:03:31;5.07;;;2.13;;
7957;SDS011;4024;52.172;5.378;2022-09-17T06:05:57;4.60;;;1.80;;
7957;SDS011;4024;52.172;5.378;2022-09-17T06:08:24;9.20;;;2.17;;
7957;SDS011;4024;52.172;5.378;2022-09-17T06:10:51;6.90;;;1.90;;
7957;SDS011;4024;52.172;5.378;2022-09-17T06:13:17;4.10;;;1.80;;
7957;SDS011;4024;52.172;5.378;2022-09-17T06:15:50;3.50;;;1.50;;
7957;SDS011;4024;52.172;5.378;2022-09-17T06:18:17;4.83;;;1.80;;
7957;SDS011;4024;52.172;5.378;2022-09-17T06:20:54;5.40;;;1.97;;
7957;SDS011;4024;52.172;5.378;2022-09-17T06:23:20;4.07;;;1.90;;
7957;SDS011;4024;52.172;5.378;2022-09-17T06:25:53;9.53;;;2.10;;
7957;SDS011;4024;52.172;5.378;2022-09-17T06:28:20;3.87;;;1.57;;
7957;SDS011;4024;52.172;5.378;2022-09-17T06:30:46;7.80;;;2.13;;
7957;SDS011;4024;52.172;5.378;2022-09-17T06:33:13;9.03;;;2.30;;
7957;SDS011;4024;52.172;5.378;2022-09-17T06:35:39;7.67;;;2.10;;
7957;SDS011;4024;52.172;5.378;2022-09-17T06:38:06;7.10;;;2.10;;
7957;SDS011;4024;52.172;5.378;2022-09-17T06:40:32;5.50;;;1.87;;
7957;SDS011;4024;52.172;5.378;2022-09-17T06:42:58;7.70;;;2.07;;
7957;SDS011;4024;52.172;5.378;2022-09-17T06:45:24;5.23;;;2.00;;
7957;SDS011;4024;52.172;5.378;2022-09-17T06:47:50;7.03;;;2.57;;
7957;SDS011;4024;52.172;5.378;2022-09-17T06:50:16;8.00;;;2.43;;
7957;SDS011;4024;52.172;5.378;2022-09-17T06:52:48;7.67;;;2.30;;
7957;SDS011;4024;52.172;5.378;2022-09-17T06:55:18;7.77;;;2.17;;
7957;SDS011;4024;52.172;5.378;2022-09-17T06:57:44;4.33;;;1.97;;
7957;SDS011;4024;52.172;5.378;2022-09-17T07:00:10;6.33;;;1.67;;
7957;SDS011;4024;52.172;5.378;2022-09-17T07:02:37;5.27;;;1.77;;
7957;SDS011;4024;52.172;5.378;2022-09-17T07:05:03;8.30;;;2.53;;
7957;SDS011;4024;52.172;5.378;2022-09-17T07:07:29;6.97;;;2.10;;
7957;SDS011;4024;52.172;5.378;2022-09-17T07:09:55;6.27;;;2.23;;
7957;SDS011;4024;52.172;5.378;2022-09-17T07:12:21;8.03;;;2.03;;
7957;SDS011;4024;52.172;5.378;2022-09-17T07:14:47;9.63;;;2.07;;
7957;SDS011;4024;52.172;5.378;2022-09-17T07:17:13;5.53;;;2.20;;
7957;SDS011;4024;52.172;5.378;2022-09-17T07:19:39;10.37;;;2.67;;
7957;SDS011;4024;52.172;5.378;2022-09-17T07:22:05;6.50;;;2.00;;
7957;SDS011;4024;52.172;5.378;2022-09-17T07:24:31;4.93;;;1.83;;
7957;SDS011;4024;52.172;5.378;2022-09-17T07:26:57;4.10;;;1.60;;
7957;SDS011;4024;52.172;5.378;2022-09-17T07:29:23;6.43;;;1.90;;
7957;SDS011;4024;52.172;5.378;2022-09-17T07:31:51;5.80;;;1.70;;
7957;SDS011;4024;52.172;5.378;2022-09-17T07:34:17;6.67;;;2.20;;
7957;SDS011;4024;52.172;5.378;2022-09-17T07:36:43;5.57;;;1.83;;
7957;SDS011;4024;52.172;5.378;2022-09-17T07:39:09;4.83;;;1.70;;
7957;SDS011;4024;52.172;5.378;2022-09-17T07:41:37;5.97;;;1.97;;
7957;SDS011;4024;52.172;5.378;2022-09-17T07:44:03;5.17;;;2.03;;
7957;SDS011;4024;52.172;5.378;2022-09-17T07:46:28;6.37;;;1.80;;
7957;SDS011;4024;52.172;5.378;2022-09-17T07:48:54;7.70;;;2.13;;
7957;SDS011;4024;52.172;5.378;2022-09-17T07:51:21;4.83;;;1.67;;
7957;SDS011;4024;52.172;5.378;2022-09-17T07:53:52;4.07;;;2.00;;
7957;SDS011;4024;52.172;5.378;2022-09-17T07:56:18;5.83;;;1.97;;
7957;SDS011;4024;52.172;5.378;2022-09-17T07:58:45;5.93;;;1.80;;
7957;SDS011;4024;52.172;5.378;2022-09-17T08:01:11;3.77;;;1.50;;
7957;SDS011;4024;52.172;5.378;2022-09-17T08:03:39;5.50;;;1.70;;
7957;SDS011;4024;52.172;5.378;2022-09-17T08:08:35;3.47;;;1.60;;
7957;SDS011;4024;52.172;5.378;2022-09-17T08:11:02;4.17;;;1.67;;
7957;SDS011;4024;52.172;5.378;2022-09-17T08:13:29;7.10;;;1.83;;
7957;SDS011;4024;52.172;5.378;2022-09-17T08:16:03;3.50;;;1.57;;
7957;SDS011;4024;52.172;5.378;2022-09-17T08:18:30;3.43;;;1.60;;
7957;SDS011;4024;52.172;5.378;2022-09-17T08:20:57;4.00;;;1.50;;
7957;SDS011;4024;52.172;5.378;2022-09-17T08:23:24;3.57;;;1.70;;
7957;SDS011;4024;52.172;5.378;2022-09-17T08:25:53;4.10;;;1.40;;
7957;SDS011;4024;52.172;5.378;2022-09-17T08:28:20;4.03;;;1.33;;
7957;SDS011;4024;52.172;5.378;2022-09-17T08:30:47;4.13;;;1.50;;
7957;SDS011;4024;52.172;5.378;2022-09-17T08:33:15;3.70;;;1.93;;
7957;SDS011;4024;52.172;5.378;2022-09-17T08:35:41;5.17;;;1.93;;
7957;SDS011;4024;52.172;5.378;2022-09-17T08:38:06;4.37;;;1.60;;
7957;SDS011;4024;52.172;5.378;2022-09-17T08:40:33;5.57;;;1.63;;
7957;SDS011;4024;52.172;5.378;2022-09-17T08:43:07;2.00;;;1.40;;
7957;SDS011;4024;52.172;5.378;2022-09-17T08:45:41;4.83;;;1.77;;
7957;SDS011;4024;52.172;5.378;2022-09-17T08:48:07;4.90;;;1.60;;
7957;SDS011;4024;52.172;5.378;2022-09-17T08:50:37;4.53;;;1.80;;
7957;SDS011;4024;52.172;5.378;2022-09-17T08:53:18;7.43;;;1.70;;
7957;SDS011;4024;52.172;5.378;2022-09-17T08:56:12;4.17;;;1.80;;
7957;SDS011;4024;52.172;5.378;2022-09-17T09:01:51;1.97;;;1.13;;
7957;SDS011;4024;52.172;5.378;2022-09-17T09:06:54;5.17;;;1.50;;
7957;SDS011;4024;52.172;5.378;2022-09-17T09:09:24;5.10;;;1.87;;
7957;SDS011;4024;52.172;5.378;2022-09-17T09:12:40;4.43;;;1.80;;
7957;SDS011;4024;52.172;5.378;2022-09-17T09:14:59;5.40;;;1.73;;
7957;SDS011;4024;52.172;5.378;2022-09-17T09:17:36;6.30;;;1.90;;
7957;SDS011;4024;52.172;5.378;2022-09-17T09:20:11;6.07;;;1.97;;
7957;SDS011;4024;52.172;5.378;2022-09-17T09:22:50;5.10;;;1.70;;
7957;SDS011;4024;52.172;5.378;2022-09-17T09:30:25;5.20;;;1.90;;
7957;SDS011;4024;52.172;5.378;2022-09-17T09:33:02;5.20;;;1.70;;
7957;SDS011;4024;52.172;5.378;2022-09-17T09:35:40;6.47;;;2.27;;
7957;SDS011;4024;52.172;5.378;2022-09-17T09:46:02;3.17;;;1.60;;
7957;SDS011;4024;52.172;5.378;2022-09-17T09:48:45;2.60;;;1.73;;
7957;SDS011;4024;52.172;5.378;2022-09-17T09:57:24;5.50;;;2.20;;
7957;SDS011;4024;52.172;5.378;2022-09-17T10:02:51;7.03;;;1.60;;
7957;SDS011;4024;52.172;5.378;2022-09-17T10:05:26;2.60;;;1.47;;
7957;SDS011;4024;52.172;5.378;2022-09-17T10:07:52;4.33;;;1.50;;
7957;SDS011;4024;52.172;5.378;2022-09-17T10:10:17;3.13;;;1.50;;
7957;SDS011;4024;52.172;5.378;2022-09-17T10:12:43;2.90;;;1.27;;
7957;SDS011;4024;52.172;5.378;2022-09-17T10:15:25;3.27;;;1.63;;
7957;SDS011;4024;52.172;5.378;2022-09-17T10:18:11;3.97;;;1.40;;
7957;SDS011;4024;52.172;5.378;2022-09-17T10:20:57;2.30;;;1.20;;
7957;SDS011;4024;52.172;5.378;2022-09-17T10:23:28;2.70;;;1.60;;
7957;SDS011;4024;52.172;5.378;2022-09-17T10:25:58;1.90;;;1.23;;
7957;SDS011;4024;52.172;5.378;2022-09-17T10:30:58;5.23;;;1.87;;
7957;SDS011;4024;52.172;5.378;2022-09-17T10:33:29;4.60;;;1.70;;
7957;SDS011;4024;52.172;5.378;2022-09-17T10:35:57;6.37;;;1.90;;
7957;SDS011;4024;52.172;5.378;2022-09-17T10:38:32;6.50;;;1.97;;
7957;SDS011;4024;52.172;5.378;2022-09-17T10:41:18;3.77;;;1.50;;
7957;SDS011;4024;52.172;5.378;2022-09-17T10:43:49;3.80;;;2.00;;
7957;SDS011;4024;52.172;5.378;2022-09-17T10:46:17;7.17;;;2.30;;
7957;SDS011;4024;52.172;5.378;2022-09-17T10:48:49;4.97;;;1.97;;
7957;SDS011;4024;52.172;5.378;2022-09-17T10:51:33;3.87;;;1.97;;
7957;SDS011;4024;52.172;5.378;2022-09-17T10:54:14;8.70;;;2.27;;
7957;SDS011;4024;52.172;5.378;2022-09-17T10:56:51;4.97;;;1.73;;
7957;SDS011;4024;52.172;5.378;2022-09-17T10:59:36;4.93;;;2.13;;
7957;SDS011;4024;52.172;5.378;2022-09-17T11:13:37;5.73;;;2.00;;
7957;SDS011;4024;52.172;5.378;2022-09-17T11:19:20;4.47;;;2.67;;
7957;SDS011;4024;52.172;5.378;2022-09-17T11:30:16;10.50;;;2.63;;
7957;SDS011;4024;52.172;5.378;2022-09-17T11:35:36;14.43;;;2.80;;
7957;SDS011;4024;52.172;5.378;2022-09-17T11:38:18;7.83;;;2.60;;
7957;SDS011;4024;52.172;5.378;2022-09-17T11:40:50;5.43;;;2.10;;
7957;SDS011;4024;52.172;5.378;2022-09-17T11:43:34;5.37;;;2.13;;
7957;SDS011;4024;52.172;5.378;2022-09-17T11:48:52;9.67;;;2.47;;
7957;SDS011;4024;52.172;5.378;2022-09-17T11:51:26;9.83;;;2.87;;
7957;SDS011;4024;52.172;5.378;2022-09-17T11:54:07;9.07;;;3.00;;
7957;SDS011;4024;52.172;5.378;2022-09-17T11:56:57;8.30;;;2.70;;
7957;SDS011;4024;52.172;5.378;2022-09-17T11:59:39;8.03;;;2.63;;
7957;SDS011;4024;52.172;5.378;2022-09-17T12:02:21;9.27;;;2.90;;
7957;SDS011;4024;52.172;5.378;2022-09-17T12:04:56;6.67;;;2.37;;
7957;SDS011;4024;52.172;5.378;2022-09-17T12:13:15;6.23;;;2.00;;
7957;SDS011;4024;52.172;5.378;2022-09-17T12:15:44;7.87;;;2.57;;
7957;SDS011;4024;52.172;5.378;2022-09-17T12:21:21;5.60;;;1.93;;
7957;SDS011;4024;52.172;5.378;2022-09-17T12:24:24;6.43;;;2.30;;
7957;SDS011;4024;52.172;5.378;2022-09-17T12:34:48;5.57;;;2.00;;
7957;SDS011;4024;52.172;5.378;2022-09-17T12:37:26;8.57;;;2.33;;
7957;SDS011;4024;52.172;5.378;2022-09-17T12:40:04;6.97;;;2.13;;
7957;SDS011;4024;52.172;5.378;2022-09-17T12:42:47;8.43;;;2.37;;
7957;SDS011;4024;52.172;5.378;2022-09-17T12:56:22;4.50;;;2.40;;
7957;SDS011;4024;52.172;5.378;2022-09-17T13:04:27;6.80;;;1.80;;
7957;SDS011;4024;52.172;5.378;2022-09-17T13:13:07;10.17;;;2.60;;
7957;SDS011;4024;52.172;5.378;2022-09-17T13:18:15;10.10;;;2.93;;
7957;SDS011;4024;52.172;5.378;2022-09-17T13:26:06;9.27;;;2.93;;
7957;SDS011;4024;52.172;5.378;2022-09-17T13:28:37;10.50;;;2.87;;
7957;SDS011;4024;52.172;5.378;2022-09-17T13:31:07;8.00;;;2.60;;
7957;SDS011;4024;52.172;5.378;2022-09-17T13:36:39;8.73;;;2.27;;
7957;SDS011;4024;52.172;5.378;2022-09-17T13:39:07;7.70;;;2.10;;
7957;SDS011;4024;52.172;5.378;2022-09-17T13:41:36;4.53;;;1.97;;
7957;SDS011;4024;52.172;5.378;2022-09-17T13:44:04;4.13;;;2.10;;
7957;SDS011;4024;52.172;5.378;2022-09-17T13:46:30;6.47;;;2.07;;
7957;SDS011;4024;52.172;5.378;2022-09-17T13:49:02;3.10;;;1.60;;
7957;SDS011;4024;52.172;5.378;2022-09-17T13:54:02;3.57;;;1.70;;
7957;SDS011;4024;52.172;5.378;2022-09-17T13:56:34;3.97;;;1.57;;
7957;SDS011;4024;52.172;5.378;2022-09-17T13:59:10;3.97;;;1.50;;
7957;SDS011;4024;52.172;5.378;2022-09-17T14:09:57;6.03;;;2.23;;
7957;SDS011;4024;52.172;5.378;2022-09-17T14:12:50;7.87;;;2.17;;
7957;SDS011;4024;52.172;5.378;2022-09-17T14:21:38;6.97;;;2.23;;
7957;SDS011;4024;52.172;5.378;2022-09-17T14:23:46;5.57;;;2.33;;
7957;SDS011;4024;52.172;5.378;2022-09-17T14:26:23;5.93;;;2.30;;
7957;SDS011;4024;52.172;5.378;2022-09-17T14:29:08;6.30;;;2.23;;
7957;SDS011;4024;52.172;5.378;2022-09-17T14:31:37;8.90;;;2.40;;
7957;SDS011;4024;52.172;5.378;2022-09-17T14:34:04;7.17;;;2.40;;
7957;SDS011;4024;52.172;5.378;2022-09-17T14:36:31;9.33;;;2.40;;
7957;SDS011;4024;52.172;5.378;2022-09-17T14:39:01;8.80;;;2.77;;
7957;SDS011;4024;52.172;5.378;2022-09-17T14:41:34;8.43;;;2.60;;
7957;SDS011;4024;52.172;5.378;2022-09-17T14:44:06;10.53;;;2.60;;
7957;SDS011;4024;52.172;5.378;2022-09-17T14:47:06;11.30;;;2.93;;
7957;SDS011;4024;52.172;5.378;2022-09-17T14:49:38;11.40;;;3.03;;
7957;SDS011;4024;52.172;5.378;2022-09-17T14:55:10;9.50;;;3.00;;
7957;SDS011;4024;52.172;5.378;2022-09-17T14:57:54;10.93;;;2.83;;
7957;SDS011;4024;52.172;5.378;2022-09-17T15:00:22;8.07;;;3.00;;
7957;SDS011;4024;52.172;5.378;2022-09-17T15:02:50;13.00;;;3.03;;
7957;SDS011;4024;52.172;5.378;2022-09-17T15:05:25;8.13;;;2.73;;
7957;SDS011;4024;52.172;5.378;2022-09-17T15:10:47;12.70;;;2.47;;
7957;SDS011;4024;52.172;5.378;2022-09-17T15:13:24;6.47;;;2.13;;
7957;SDS011;4024;52.172;5.378;2022-09-17T15:15:58;8.47;;;2.73;;
7957;SDS011;4024;52.172;5.378;2022-09-17T15:18:41;10.27;;;2.53;;
7957;SDS011;4024;52.172;5.378;2022-09-17T15:23:49;6.40;;;2.77;;
7957;SDS011;4024;52.172;5.378;2022-09-17T15:26:19;6.17;;;2.30;;
7957;SDS011;4024;52.172;5.378;2022-09-17T15:28:50;8.33;;;2.70;;
7957;SDS011;4024;52.172;5.378;2022-09-17T15:31:18;10.63;;;2.77;;
7957;SDS011;4024;52.172;5.378;2022-09-17T15:33:45;5.20;;;2.20;;
7957;SDS011;4024;52.172;5.378;2022-09-17T15:36:22;6.00;;;2.20;;
7957;SDS011;4024;52.172;5.378;2022-09-17T15:38:49;4.07;;;2.00;;
7957;SDS011;4024;52.172;5.378;2022-09-17T15:41:22;5.47;;;2.00;;
7957;SDS011;4024;52.172;5.378;2022-09-17T15:43:53;3.97;;;1.70;;
7957;SDS011;4024;52.172;5.378;2022-09-17T15:46:41;3.93;;;1.83;;
7957;SDS011;4024;52.172;5.378;2022-09-17T15:52:29;6.50;;;2.20;;
7957;SDS011;4024;52.172;5.378;2022-09-17T15:54:59;6.17;;;2.10;;
7957;SDS011;4024;52.172;5.378;2022-09-17T15:57:25;7.53;;;2.73;;
7957;SDS011;4024;52.172;5.378;2022-09-17T15:59:53;8.30;;;2.53;;
7957;SDS011;4024;52.172;5.378;2022-09-17T16:02:27;5.97;;;2.00;;
7957;SDS011;4024;52.172;5.378;2022-09-17T16:07:41;10.43;;;2.87;;
7957;SDS011;4024;52.172;5.378;2022-09-17T16:10:08;7.27;;;2.43;;
7957;SDS011;4024;52.172;5.378;2022-09-17T16:12:35;7.20;;;2.50;;
7957;SDS011;4024;52.172;5.378;2022-09-17T16:15:02;11.30;;;2.67;;
7957;SDS011;4024;52.172;5.378;2022-09-17T16:20:17;8.13;;;2.50;;
7957;SDS011;4024;52.172;5.378;2022-09-17T16:22:48;9.97;;;3.30;;
7957;SDS011;4024;52.172;5.378;2022-09-17T16:25:15;5.77;;;2.53;;
7957;SDS011;4024;52.172;5.378;2022-09-17T16:27:44;9.67;;;2.93;;
7957;SDS011;4024;52.172;5.378;2022-09-17T16:30:28;5.10;;;2.30;;
7957;SDS011;4024;52.172;5.378;2022-09-17T16:32:53;11.90;;;2.83;;
7957;SDS011;4024;52.172;5.378;2022-09-17T16:35:20;10.63;;;2.53;;
7957;SDS011;4024;52.172;5.378;2022-09-17T16:37:47;7.70;;;2.67;;
7957;SDS011;4024;52.172;5.378;2022-09-17T16:40:14;6.10;;;1.97;;
7957;SDS011;4024;52.172;5.378;2022-09-17T16:42:40;8.27;;;2.80;;
7957;SDS011;4024;52.172;5.378;2022-09-17T16:45:06;10.17;;;2.80;;
7957;SDS011;4024;52.172;5.378;2022-09-17T16:47:33;11.63;;;2.70;;
7957;SDS011;4024;52.172;5.378;2022-09-17T16:50:06;8.63;;;2.57;;
7957;SDS011;4024;52.172;5.378;2022-09-17T16:52:34;8.73;;;2.63;;
7957;SDS011;4024;52.172;5.378;2022-09-17T16:55:01;6.30;;;2.40;;
7957;SDS011;4024;52.172;5.378;2022-09-17T16:57:27;4.90;;;2.50;;
7957;SDS011;4024;52.172;5.378;2022-09-17T16:59:54;5.47;;;2.27;;
7957;SDS011;4024;52.172;5.378;2022-09-17T17:02:19;8.37;;;2.40;;
7957;SDS011;4024;52.172;5.378;2022-09-17T17:04:45;3.23;;;1.93;;
7957;SDS011;4024;52.172;5.378;2022-09-17T17:07:11;3.83;;;1.90;;
7957;SDS011;4024;52.172;5.378;2022-09-17T17:09:37;4.37;;;1.80;;
7957;SDS011;4024;52.172;5.378;2022-09-17T17:12:03;3.37;;;2.00;;
7957;SDS011;4024;52.172;5.378;2022-09-17T17:14:28;5.43;;;2.23;;
7957;SDS011;4024;52.172;5.378;2022-09-17T17:16:54;8.00;;;2.00;;
7957;SDS011;4024;52.172;5.378;2022-09-17T17:19:20;3.57;;;1.93;;
7957;SDS011;4024;52.172;5.378;2022-09-17T17:21:48;5.70;;;1.77;;
7957;SDS011;4024;52.172;5.378;2022-09-17T17:24:14;6.20;;;1.90;;
7957;SDS011;4024;52.172;5.378;2022-09-17T17:26:41;4.03;;;1.97;;
7957;SDS011;4024;52.172;5.378;2022-09-17T17:29:06;7.30;;;1.83;;
7957;SDS011;4024;52.172;5.378;2022-09-17T17:31:33;5.67;;;1.73;;
7957;SDS011;4024;52.172;5.378;2022-09-17T17:33:59;4.50;;;1.80;;
7957;SDS011;4024;52.172;5.378;2022-09-17T17:36:25;2.40;;;1.53;;
7957;SDS011;4024;52.172;5.378;2022-09-17T17:38:55;2.43;;;1.40;;
7957;SDS011;4024;52.172;5.378;2022-09-17T17:41:23;3.50;;;1.73;;
7957;SDS011;4024;52.172;5.378;2022-09-17T17:43:51;2.47;;;1.60;;
7957;SDS011;4024;52.172;5.378;2022-09-17T17:46:18;3.83;;;2.10;;
7957;SDS011;4024;52.172;5.378;2022-09-17T17:48:44;3.07;;;1.70;;
7957;SDS011;4024;52.172;5.378;2022-09-17T17:51:10;2.93;;;1.70;;
7957;SDS011;4024;52.172;5.378;2022-09-17T17:53:36;5.40;;;1.97;;
7957;SDS011;4024;52.172;5.378;2022-09-17T17:56:05;5.53;;;2.10;;
7957;SDS011;4024;52.172;5.378;2022-09-17T17:58:32;4.97;;;1.80;;
7957;SDS011;4024;52.172;5.378;2022-09-17T18:00:58;4.93;;;2.20;;
7957;SDS011;4024;52.172;5.378;2022-09-17T18:03:24;3.97;;;1.90;;
7957;SDS011;4024;52.172;5.378;2022-09-17T18:05:54;4.57;;;1.80;;
7957;SDS011;4024;52.172;5.378;2022-09-17T18:08:23;3.80;;;1.73;;
7957;SDS011;4024;52.172;5.378;2022-09-17T18:10:50;3.73;;;1.90;;
7957;SDS011;4024;52.172;5.378;2022-09-17T18:13:19;4.10;;;2.00;;
7957;SDS011;4024;52.172;5.378;2022-09-17T18:15:55;3.67;;;2.00;;
7957;SDS011;4024;52.172;5.378;2022-09-17T18:18:23;4.50;;;2.00;;
7957;SDS011;4024;52.172;5.378;2022-09-17T18:20:50;2.83;;;1.80;;
7957;SDS011;4024;52.172;5.378;2022-09-17T18:23:18;5.07;;;2.53;;
7957;SDS011;4024;52.172;5.378;2022-09-17T18:25:54;5.40;;;2.10;;
7957;SDS011;4024;52.172;5.378;2022-09-17T18:28:21;3.97;;;2.13;;
7957;SDS011;4024;52.172;5.378;2022-09-17T18:30:47;6.00;;;1.97;;
7957;SDS011;4024;52.172;5.378;2022-09-17T18:33:23;3.17;;;1.87;;
7957;SDS011;4024;52.172;5.378;2022-09-17T18:35:51;7.17;;;2.63;;
7957;SDS011;4024;52.172;5.378;2022-09-17T18:38:21;4.17;;;2.07;;
7957;SDS011;4024;52.172;5.378;2022-09-17T18:40:49;4.17;;;2.00;;